Time;durP1;ratioP1;P1;durP2;ratioP2;P2;SDS_P1;SDS_P2;PMS_P1;PMS_P2;Temp;Humidity;BMP_temperature;BMP_pressure;BME280_temperature;BME280_humidity;BME280_pressure;Samples;Min_cycle;Max_cycle;Signal;HPM_P1;HPM_P2
2021/09/27 00:02:19;;;;;;;;;;;18.20;99.90;;;;;;5055212;28;19912;-74
2021/09/27 00:04:44;;;;;;;;;;;18.20;99.90;;;;;;5058461;28;19962;-74
2021/09/27 00:07:10;;;;;;;;;;;18.20;99.90;;;;;;5066369;28;19920;-74
2021/09/27 00:09:35;;;;;;;;;;;18.20;99.90;;;;;;5068566;28;20386;-74
2021/09/27 00:12:05;;;;;;;;;;;18.20;99.90;;;;;;5066088;28;19913;-75
2021/09/27 00:14:31;;;;;;;;;;;18.10;99.90;;;;;;5075352;28;20300;-74
2021/09/27 00:16:57;;;;;;;;;;;18.20;99.90;;;;;;5067760;28;19938;-73
2021/09/27 00:19:24;;;;;;;;;;;18.20;99.90;;;;;;5055384;28;19920;-75
2021/09/27 00:21:51;;;;;;;;;;;18.10;99.90;;;;;;5041300;28;19920;-73
2021/09/27 00:24:16;;;;;;;;;;;18.20;99.90;;;;;;5089423;28;19913;-74
2021/09/27 00:26:42;;;;;;;;;;;18.10;99.90;;;;;;5054235;28;19912;-74
2021/09/27 00:29:08;;;;;;;;;;;18.10;99.90;;;;;;5064813;28;19919;-74
2021/09/27 00:31:33;;;;;;;;;;;18.00;99.90;;;;;;5073159;28;19919;-73
2021/09/27 00:33:59;;;;;;;;;;;18.00;99.90;;;;;;5048727;28;20477;-74
2021/09/27 00:36:24;;;;;;;;;;;18.00;99.90;;;;;;5067375;28;19923;-74
2021/09/27 00:38:50;;;;;;;;;;;18.00;99.90;;;;;;5068188;28;19916;-74
2021/09/27 00:41:18;;;;;;;;;;;18.00;99.90;;;;;;5055951;28;19913;-73
2021/09/27 00:43:44;;;;;;;;;;;18.00;99.90;;;;;;5074801;28;19912;-74
2021/09/27 00:46:11;;;;;;;;;;;18.00;99.90;;;;;;5075956;28;19901;-74
2021/09/27 00:48:38;;;;;;;;;;;18.00;99.90;;;;;;5082014;28;19944;-73
2021/09/27 00:51:08;;;;;;;;;;;18.00;99.90;;;;;;5084340;28;19940;-73
2021/09/27 00:53:40;;;;;;;;;;;18.00;99.90;;;;;;5087863;28;19931;-74
2021/09/27 00:56:06;;;;;;;;;;;18.00;99.90;;;;;;5084311;28;20328;-73
2021/09/27 00:58:32;;;;;;;;;;;17.90;99.90;;;;;;5089186;28;19936;-73
2021/09/27 01:00:57;;;;;;;;;;;17.90;99.90;;;;;;5087142;28;19925;-73
2021/09/27 01:03:24;;;;;;;;;;;17.90;99.90;;;;;;5088112;28;19900;-73
2021/09/27 01:06:01;;;;;;;;;;;17.80;99.90;;;;;;5071498;28;19940;-72
2021/09/27 01:08:50;;;;;;;;;;;17.80;99.90;;;;;;5087266;28;19985;-73
2021/09/27 01:11:18;;;;;;;;;;;17.80;99.90;;;;;;5090545;28;19913;-74
2021/09/27 01:13:44;;;;;;;;;;;17.80;99.90;;;;;;5088095;28;19912;-73
2021/09/27 01:16:34;;;;;;;;;;;17.70;99.90;;;;;;5088012;28;19896;-74
2021/09/27 01:19:21;;;;;;;;;;;17.80;99.90;;;;;;5086358;28;19913;-73
2021/09/27 01:21:55;;;;;;;;;;;17.80;99.90;;;;;;5084405;28;19962;-72
2021/09/27 01:24:31;;;;;;;;;;;17.70;99.90;;;;;;5093870;28;19971;-71
2021/09/27 01:26:56;;;;;;;;;;;17.80;99.90;;;;;;5069332;28;19924;-72
2021/09/27 01:29:40;;;;;;;;;;;17.70;99.90;;;;;;5092136;28;21047;-73
2021/09/27 01:32:15;;;;;;;;;;;17.70;99.90;;;;;;5072767;28;19920;-73
2021/09/27 01:34:43;;;;;;;;;;;17.70;99.90;;;;;;5061258;28;19928;-73
2021/09/27 01:37:18;;;;;;;;;;;17.70;99.90;;;;;;5071376;28;19920;-73
2021/09/27 01:40:08;;;;;;;;;;;17.60;99.90;;;;;;5054048;28;19912;-74
2021/09/27 01:42:52;;;;;;;;;;;17.60;99.90;;;;;;5077456;28;19913;-73
2021/09/27 01:45:28;;;;;;;;;;;17.50;99.90;;;;;;5078595;28;19912;-74
2021/09/27 01:48:12;;;;;;;;;;;17.50;99.90;;;;;;5074796;28;19912;-73
2021/09/27 01:50:46;;;;;;;;;;;17.50;99.90;;;;;;5074475;28;20328;-73
2021/09/27 01:53:34;;;;;;;;;;;17.40;99.90;;;;;;5068377;28;19943;-73
2021/09/27 01:56:00;;;;;;;;;;;17.40;99.90;;;;;;5077687;28;20337;-73
2021/09/27 01:58:32;;;;;;;;;;;17.30;99.90;;;;;;5065817;28;19916;-74
2021/09/27 02:01:02;;;;;;;;;;;17.40;99.90;;;;;;5078059;28;19914;-73
2021/09/27 02:03:31;;;;;;;;;;;17.30;99.90;;;;;;5080264;28;20288;-74
2021/09/27 02:06:06;;;;;;;;;;;17.30;99.90;;;;;;5048029;28;19999;-74
2021/09/27 02:08:50;;;;;;;;;;;17.20;99.90;;;;;;5078077;28;19920;-74
2021/09/27 02:11:26;;;;;;;;;;;17.10;99.90;;;;;;5076446;28;20295;-74
2021/09/27 02:13:59;;;;;;;;;;;17.10;99.90;;;;;;5058914;28;20065;-74
2021/09/27 02:16:39;;;;;;;;;;;17.10;99.90;;;;;;5067215;28;19920;-74
2021/09/27 02:19:11;;;;;;;;;;;17.00;99.90;;;;;;5068129;28;20376;-74
2021/09/27 02:21:39;;;;;;;;;;;17.10;99.90;;;;;;5052999;28;19916;-74
2021/09/27 02:24:16;;;;;;;;;;;17.00;99.90;;;;;;5069730;28;19969;-73
2021/09/27 02:26:42;;;;;;;;;;;17.00;99.90;;;;;;5076261;28;19920;-73
2021/09/27 02:29:08;;;;;;;;;;;17.00;99.90;;;;;;5072669;28;19919;-73
2021/09/27 02:31:39;;;;;;;;;;;17.00;99.90;;;;;;5058180;28;20289;-72
2021/09/27 02:34:08;;;;;;;;;;;17.00;99.90;;;;;;5063192;28;19916;-73
2021/09/27 02:36:39;;;;;;;;;;;17.00;99.90;;;;;;5073477;28;19962;-72
2021/09/27 02:39:16;;;;;;;;;;;17.00;99.90;;;;;;5070295;28;20019;-72
2021/09/27 02:42:04;;;;;;;;;;;16.90;99.90;;;;;;5065474;28;19916;-73
2021/09/27 02:44:29;;;;;;;;;;;16.90;99.90;;;;;;5056333;28;19913;-73
2021/09/27 02:46:56;;;;;;;;;;;16.90;99.90;;;;;;5063710;28;19920;-74
2021/09/27 02:49:41;;;;;;;;;;;16.80;99.90;;;;;;5051413;28;19919;-73
2021/09/27 02:52:07;;;;;;;;;;;16.70;99.90;;;;;;5072770;28;19919;-73
2021/09/27 02:54:32;;;;;;;;;;;16.70;99.90;;;;;;5060832;28;19912;-74
2021/09/27 02:57:01;;;;;;;;;;;16.70;99.90;;;;;;5074839;28;20288;-73
2021/09/27 02:59:26;;;;;;;;;;;16.70;99.90;;;;;;5042456;28;19916;-74
2021/09/27 03:02:27;;;;;;;;;;;16.60;99.90;;;;;;5068152;28;19913;-73
2021/09/27 03:05:11;;;;;;;;;;;16.60;99.90;;;;;;4970338;28;19967;-73
2021/09/27 03:07:58;;;;;;;;;;;16.70;99.90;;;;;;5063975;28;20011;-72
2021/09/27 03:10:47;;;;;;;;;;;16.60;99.90;;;;;;5069803;28;20003;-73
2021/09/27 03:13:25;;;;;;;;;;;16.60;99.90;;;;;;5051949;28;20315;-73
2021/09/27 03:16:01;;;;;;;;;;;16.60;99.90;;;;;;5059750;28;20020;-73
2021/09/27 03:18:39;;;;;;;;;;;16.70;99.90;;;;;;5059850;28;19927;-73
2021/09/27 03:21:10;;;;;;;;;;;16.70;99.90;;;;;;5059036;28;19923;-73
2021/09/27 03:23:44;;;;;;;;;;;16.70;99.90;;;;;;5059299;28;19935;-74
2021/09/27 03:26:35;;;;;;;;;;;16.70;99.90;;;;;;5059873;28;19920;-73
2021/09/27 03:29:06;;;;;;;;;;;16.80;99.90;;;;;;5074715;28;19912;-73
2021/09/27 03:31:50;;;;;;;;;;;16.80;99.90;;;;;;5071904;28;19912;-73
2021/09/27 03:34:34;;;;;;;;;;;16.90;99.90;;;;;;5073408;28;19919;-73
2021/09/27 03:37:05;;;;;;;;;;;16.90;99.90;;;;;;5074453;28;19938;-73
2021/09/27 03:39:51;;;;;;;;;;;16.90;99.90;;;;;;5069639;28;19939;-73
2021/09/27 03:42:21;;;;;;;;;;;16.90;99.90;;;;;;5070651;28;19920;-72
2021/09/27 03:44:54;;;;;;;;;;;17.00;99.90;;;;;;5075126;28;19910;-73
2021/09/27 03:47:27;;;;;;;;;;;17.00;99.90;;;;;;5070280;28;19912;-73
2021/09/27 03:50:00;;;;;;;;;;;17.00;99.90;;;;;;5072993;28;19919;-73
2021/09/27 03:52:35;;;;;;;;;;;17.00;99.90;;;;;;5060895;28;19912;-74
2021/09/27 03:55:14;;;;;;;;;;;16.90;99.90;;;;;;5072747;28;19919;-74
2021/09/27 03:57:46;;;;;;;;;;;17.00;99.90;;;;;;5071682;28;20011;-74
2021/09/27 04:00:15;;;;;;;;;;;16.90;99.90;;;;;;5071011;28;19957;-73
2021/09/27 04:02:43;;;;;;;;;;;16.90;99.90;;;;;;5068623;28;19919;-75
2021/09/27 04:05:17;;;;;;;;;;;16.90;99.90;;;;;;5071052;28;19919;-72
2021/09/27 04:07:48;;;;;;;;;;;16.90;99.90;;;;;;5054420;28;19987;-74
2021/09/27 04:10:19;;;;;;;;;;;16.90;99.90;;;;;;5061317;28;20008;-73
2021/09/27 04:12:57;;;;;;;;;;;16.80;99.90;;;;;;5061607;28;19917;-74
2021/09/27 04:15:23;;;;;;;;;;;16.80;99.90;;;;;;5054613;28;19912;-73
2021/09/27 04:17:52;;;;;;;;;;;16.80;99.90;;;;;;5062199;28;20006;-74
2021/09/27 04:20:30;;;;;;;;;;;16.70;99.90;;;;;;5071028;28;20015;-73
2021/09/27 04:23:05;;;;;;;;;;;16.70;99.90;;;;;;5068155;28;19921;-74
2021/09/27 04:25:52;;;;;;;;;;;16.70;99.90;;;;;;5054127;28;19913;-74
2021/09/27 04:28:33;;;;;;;;;;;16.70;99.90;;;;;;5056867;28;19921;-74
2021/09/27 04:31:27;;;;;;;;;;;16.70;99.90;;;;;;5073834;28;19912;-73
2021/09/27 04:34:03;;;;;;;;;;;16.70;99.90;;;;;;5045846;28;19975;-73
2021/09/27 04:36:34;;;;;;;;;;;16.70;99.90;;;;;;5072150;28;19912;-73
2021/09/27 04:39:03;;;;;;;;;;;16.70;99.90;;;;;;5072068;28;19916;-74
2021/09/27 04:41:29;;;;;;;;;;;16.70;99.90;;;;;;5051871;28;20377;-74
2021/09/27 04:43:54;;;;;;;;;;;16.80;99.90;;;;;;5069017;28;19954;-75
2021/09/27 04:46:46;;;;;;;;;;;16.70;99.90;;;;;;5070585;28;19913;-74
2021/09/27 04:49:31;;;;;;;;;;;16.70;99.90;;;;;;5063233;28;19967;-74
2021/09/27 04:52:04;;;;;;;;;;;16.70;99.90;;;;;;5060502;28;19921;-73
2021/09/27 04:54:35;;;;;;;;;;;16.60;99.90;;;;;;5067029;28;19919;-74
2021/09/27 04:57:04;;;;;;;;;;;16.60;99.90;;;;;;5057901;28;19940;-74
2021/09/27 04:59:38;;;;;;;;;;;16.60;99.90;;;;;;5071292;28;19916;-75
2021/09/27 05:02:04;;;;;;;;;;;16.50;99.90;;;;;;5082633;28;20440;-74
2021/09/27 05:04:36;;;;;;;;;;;16.50;99.90;;;;;;5068320;28;20008;-74
2021/09/27 05:07:01;;;;;;;;;;;16.50;99.90;;;;;;5067759;28;19970;-75
2021/09/27 05:09:27;;;;;;;;;;;16.50;99.90;;;;;;5069303;28;19959;-74
2021/09/27 05:12:11;;;;;;;;;;;16.50;99.90;;;;;;5055463;28;20288;-73
2021/09/27 05:14:57;;;;;;;;;;;16.50;99.90;;;;;;5047645;28;19913;-74
2021/09/27 05:17:22;;;;;;;;;;;16.50;99.90;;;;;;5072132;28;20335;-74
2021/09/27 05:20:06;;;;;;;;;;;16.40;99.90;;;;;;5071607;28;19916;-74
2021/09/27 05:22:51;;;;;;;;;;;16.40;99.90;;;;;;5044661;28;19913;-74
2021/09/27 05:25:32;;;;;;;;;;;16.40;99.90;;;;;;5066189;28;20364;-74
2021/09/27 05:27:58;;;;;;;;;;;16.50;99.90;;;;;;5053191;28;19913;-74
2021/09/27 05:30:27;;;;;;;;;;;16.50;99.90;;;;;;5052628;28;19966;-73
2021/09/27 05:33:10;;;;;;;;;;;16.50;99.90;;;;;;5072193;28;20369;-74
2021/09/27 05:35:39;;;;;;;;;;;16.50;99.90;;;;;;5051221;28;19924;-75
2021/09/27 05:38:13;;;;;;;;;;;16.50;99.90;;;;;;5070568;28;19920;-74
2021/09/27 05:40:41;;;;;;;;;;;16.50;99.90;;;;;;5064661;28;19919;-75
2021/09/27 05:43:18;;;;;;;;;;;16.50;99.90;;;;;;5059943;28;20015;-74
2021/09/27 05:46:01;;;;;;;;;;;16.50;99.90;;;;;;5070298;28;20277;-73
2021/09/27 05:48:32;;;;;;;;;;;16.50;99.90;;;;;;5069394;28;19920;-74
2021/09/27 05:51:02;;;;;;;;;;;16.50;99.90;;;;;;5071522;28;20388;-74
2021/09/27 05:53:53;;;;;;;;;;;16.50;99.90;;;;;;5069456;28;19916;-73
2021/09/27 05:56:35;;;;;;;;;;;16.60;99.90;;;;;;5058530;28;19913;-74
2021/09/27 05:59:09;;;;;;;;;;;16.60;99.90;;;;;;5072652;28;19916;-74
2021/09/27 06:01:54;;;;;;;;;;;16.50;99.90;;;;;;5069501;28;19958;-75
2021/09/27 06:04:19;;;;;;;;;;;16.50;99.90;;;;;;5050465;28;19912;-74
2021/09/27 06:06:53;;;;;;;;;;;16.60;99.90;;;;;;5072226;28;19920;-74
2021/09/27 06:09:22;;;;;;;;;;;16.70;99.90;;;;;;5064722;28;20357;-74
2021/09/27 06:11:47;;;;;;;;;;;16.70;99.90;;;;;;5071427;28;19943;-74
2021/09/27 06:14:14;;;;;;;;;;;16.70;99.90;;;;;;5054337;28;19912;-74
2021/09/27 06:16:52;;;;;;;;;;;16.70;99.90;;;;;;5065993;28;19966;-73
2021/09/27 06:19:18;;;;;;;;;;;16.80;99.90;;;;;;5068713;28;20356;-74
2021/09/27 06:21:50;;;;;;;;;;;16.90;99.90;;;;;;5066651;28;19951;-74
2021/09/27 06:24:19;;;;;;;;;;;17.00;99.90;;;;;;5054419;28;19913;-75
2021/09/27 06:26:51;;;;;;;;;;;17.00;99.90;;;;;;5071384;28;20071;-74
2021/09/27 06:29:46;;;;;;;;;;;17.10;99.90;;;;;;5064304;28;19913;-74
2021/09/27 06:32:32;;;;;;;;;;;17.10;99.90;;;;;;5039034;28;20358;-75
2021/09/27 06:35:00;;;;;;;;;;;17.20;99.90;;;;;;5045964;28;19927;-72
2021/09/27 06:37:27;;;;;;;;;;;17.30;99.90;;;;;;5079809;28;19963;-74
2021/09/27 06:39:52;;;;;;;;;;;17.30;99.90;;;;;;5070847;28;19920;-75
2021/09/27 06:42:18;;;;;;;;;;;17.30;99.90;;;;;;5073906;28;19912;-75
2021/09/27 06:44:45;;;;;;;;;;;17.30;99.90;;;;;;5040401;28;19928;-74
2021/09/27 06:47:12;;;;;;;;;;;17.30;99.90;;;;;;5056410;28;19913;-74
2021/09/27 06:49:38;;;;;;;;;;;17.40;99.90;;;;;;5075076;28;19912;-74
2021/09/27 06:52:03;;;;;;;;;;;17.40;99.90;;;;;;5047998;28;19920;-73
2021/09/27 06:54:29;;;;;;;;;;;17.50;99.90;;;;;;5073074;28;20372;-74
2021/09/27 06:56:54;;;;;;;;;;;17.50;99.90;;;;;;5075139;28;19916;-74
2021/09/27 06:59:20;;;;;;;;;;;17.60;99.90;;;;;;5068041;28;19962;-74
2021/09/27 07:01:47;;;;;;;;;;;17.60;99.90;;;;;;5050771;28;19992;-74
2021/09/27 07:04:12;;;;;;;;;;;17.60;99.90;;;;;;5071225;28;20377;-74
2021/09/27 07:06:38;;;;;;;;;;;17.70;99.90;;;;;;5067409;28;19913;-74
2021/09/27 07:09:03;;;;;;;;;;;17.60;99.90;;;;;;5067924;28;20416;-74
2021/09/27 07:11:29;;;;;;;;;;;17.70;99.90;;;;;;5070002;28;20007;-74
2021/09/27 07:13:55;;;;;;;;;;;17.70;99.90;;;;;;5055420;28;20414;-76
2021/09/27 07:16:20;;;;;;;;;;;17.60;99.90;;;;;;5075007;28;19912;-76
2021/09/27 07:18:46;;;;;;;;;;;17.70;99.90;;;;;;5070994;28;19993;-77
2021/09/27 07:21:11;;;;;;;;;;;17.80;99.90;;;;;;5047673;28;20628;-76
2021/09/27 07:23:38;;;;;;;;;;;17.80;99.90;;;;;;5068148;28;19916;-77
2021/09/27 07:26:05;;;;;;;;;;;17.80;99.90;;;;;;5047923;28;20353;-75
2021/09/27 07:28:30;;;;;;;;;;;17.80;99.90;;;;;;5049234;28;19966;-75
2021/09/27 07:30:56;;;;;;;;;;;17.90;99.90;;;;;;5069754;28;20010;-74
2021/09/27 07:33:21;;;;;;;;;;;17.90;99.90;;;;;;5069217;28;20396;-75
2021/09/27 07:35:47;;;;;;;;;;;18.00;99.90;;;;;;5061116;28;19919;-75
2021/09/27 07:38:12;;;;;;;;;;;18.00;99.90;;;;;;5048258;28;19921;-74
2021/09/27 07:40:38;;;;;;;;;;;18.10;99.90;;;;;;5068849;28;19919;-74
2021/09/27 07:43:04;;;;;;;;;;;18.10;99.90;;;;;;5059037;28;20307;-74
2021/09/27 07:45:33;;;;;;;;;;;18.20;99.90;;;;;;5061249;28;19919;-75
2021/09/27 07:48:00;;;;;;;;;;;18.30;99.90;;;;;;5070003;28;19920;-74
2021/09/27 07:50:25;;;;;;;;;;;18.30;99.90;;;;;;5056114;28;19913;-74
2021/09/27 07:52:51;;;;;;;;;;;18.40;99.90;;;;;;5058880;28;19913;-74
2021/09/27 07:55:17;;;;;;;;;;;18.40;99.90;;;;;;5050815;28;19932;-75
2021/09/27 07:57:42;;;;;;;;;;;18.40;99.90;;;;;;5074676;28;19920;-73
2021/09/27 08:00:09;;;;;;;;;;;18.40;99.90;;;;;;5074287;28;20288;-74
2021/09/27 08:02:35;;;;;;;;;;;18.50;99.90;;;;;;5059844;28;19966;-75
2021/09/27 08:05:00;;;;;;;;;;;18.50;99.90;;;;;;5088683;28;20003;-74
2021/09/27 08:07:26;;;;;;;;;;;18.50;99.90;;;;;;5066371;28;20300;-75
2021/09/27 08:09:51;;;;;;;;;;;18.60;99.90;;;;;;5058189;28;20131;-74
2021/09/27 08:12:17;;;;;;;;;;;18.60;99.90;;;;;;5061023;28;19913;-76
2021/09/27 08:14:43;;;;;;;;;;;18.70;99.90;;;;;;5075444;28;20411;-75
2021/09/27 08:17:08;;;;;;;;;;;18.70;99.90;;;;;;5078044;28;19956;-75
2021/09/27 08:19:37;;;;;;;;;;;18.70;99.90;;;;;;5072055;28;19920;-75
2021/09/27 08:22:05;;;;;;;;;;;18.80;99.90;;;;;;5077441;28;20015;-74
2021/09/27 08:24:30;;;;;;;;;;;19.00;99.90;;;;;;5071221;28;19913;-75
2021/09/27 08:26:56;;;;;;;;;;;19.00;99.90;;;;;;5072149;28;20015;-73
2021/09/27 08:29:21;;;;;;;;;;;19.10;99.90;;;;;;5073214;28;19916;-72
2021/09/27 08:31:47;;;;;;;;;;;19.10;99.90;;;;;;5060864;28;20278;-75
2021/09/27 08:34:12;;;;;;;;;;;19.10;99.90;;;;;;5060908;28;20361;-75
2021/09/27 08:36:38;;;;;;;;;;;19.10;99.90;;;;;;5075406;28;19983;-74
2021/09/27 08:39:04;;;;;;;;;;;19.10;99.90;;;;;;5066532;28;19927;-75
2021/09/27 08:41:32;;;;;;;;;;;19.00;99.90;;;;;;5079614;28;19962;-72
2021/09/27 08:44:01;;;;;;;;;;;19.10;99.90;;;;;;5079442;28;19912;-75
2021/09/27 08:46:30;;;;;;;;;;;19.10;99.90;;;;;;5057572;28;19919;-75
2021/09/27 08:48:59;;;;;;;;;;;19.10;99.90;;;;;;5075578;28;19920;-75
2021/09/27 08:51:26;;;;;;;;;;;19.10;99.90;;;;;;5074639;28;20380;-75
2021/09/27 08:53:54;;;;;;;;;;;19.10;99.90;;;;;;5067735;28;19971;-74
2021/09/27 08:56:32;;;;;;;;;;;19.10;99.90;;;;;;5057194;28;19958;-73
2021/09/27 08:58:58;;;;;;;;;;;19.10;99.90;;;;;;5069257;28;19912;-73
2021/09/27 09:01:31;;;;;;;;;;;19.20;99.90;;;;;;5073516;28;19981;-73
2021/09/27 09:04:07;;;;;;;;;;;19.20;99.90;;;;;;5071592;28;20361;-74
2021/09/27 09:06:47;;;;;;;;;;;19.30;99.90;;;;;;5065818;28;20395;-74
2021/09/27 09:09:15;;;;;;;;;;;19.40;99.90;;;;;;5056286;28;19963;-74
2021/09/27 09:11:46;;;;;;;;;;;19.60;99.90;;;;;;5070751;28;20019;-73
2021/09/27 09:14:18;;;;;;;;;;;19.70;99.90;;;;;;5068764;28;19913;-75
2021/09/27 09:16:47;;;;;;;;;;;20.00;99.90;;;;;;5072821;28;19924;-74
2021/09/27 09:19:16;;;;;;;;;;;20.20;99.90;;;;;;5063365;28;20428;-74
2021/09/27 09:21:50;;;;;;;;;;;20.30;99.90;;;;;;5066878;28;20402;-75
2021/09/27 09:24:18;;;;;;;;;;;20.30;99.90;;;;;;5072116;28;19912;-73
2021/09/27 09:26:46;;;;;;;;;;;20.30;99.90;;;;;;5058264;28;19912;-74
2021/09/27 09:29:12;;;;;;;;;;;20.30;99.90;;;;;;5051530;28;19924;-74
2021/09/27 09:31:44;;;;;;;;;;;20.40;99.90;;;;;;5058732;28;20015;-74
2021/09/27 09:34:19;;;;;;;;;;;20.30;99.90;;;;;;5061418;28;19913;-74
2021/09/27 09:36:46;;;;;;;;;;;20.30;99.90;;;;;;5062812;28;20503;-75
2021/09/27 09:39:11;;;;;;;;;;;20.30;99.90;;;;;;5060771;28;20413;-73
2021/09/27 09:41:45;;;;;;;;;;;20.40;99.90;;;;;;5059403;28;19913;-72
2021/09/27 09:44:20;;;;;;;;;;;20.30;99.90;;;;;;5061555;28;19966;-74
2021/09/27 09:46:56;;;;;;;;;;;20.30;99.90;;;;;;5064706;28;19919;-73
2021/09/27 09:49:21;;;;;;;;;;;20.30;99.90;;;;;;5073063;28;19915;-73
2021/09/27 09:51:56;;;;;;;;;;;20.20;99.90;;;;;;5059166;28;20007;-74
2021/09/27 09:54:26;;;;;;;;;;;20.30;99.90;;;;;;5061402;28;19959;-74
2021/09/27 09:56:58;;;;;;;;;;;20.20;99.90;;;;;;5054092;28;19913;-74
2021/09/27 09:59:27;;;;;;;;;;;20.20;99.90;;;;;;5071024;28;19917;-73
2021/09/27 10:01:54;;;;;;;;;;;20.20;99.90;;;;;;5060388;28;19913;-73
2021/09/27 10:04:22;;;;;;;;;;;20.30;99.90;;;;;;5071399;28;19912;-74
2021/09/27 10:06:56;;;;;;;;;;;20.30;99.90;;;;;;5067521;28;19916;-74
2021/09/27 10:09:25;;;;;;;;;;;20.30;99.90;;;;;;5062239;28;20432;-74
2021/09/27 10:11:52;;;;;;;;;;;20.40;99.90;;;;;;5071799;28;20375;-74
2021/09/27 10:14:18;;;;;;;;;;;20.50;99.90;;;;;;5075742;28;19913;-75
2021/09/27 10:16:50;;;;;;;;;;;20.50;99.90;;;;;;5075355;28;19916;-74
2021/09/27 10:19:38;;;;;;;;;;;20.60;99.90;;;;;;5074214;28;20288;-75
2021/09/27 10:22:18;;;;;;;;;;;20.60;99.90;;;;;;5075457;28;19969;-74
2021/09/27 10:24:45;;;;;;;;;;;20.80;99.90;;;;;;5064995;28;19920;-74
2021/09/27 10:27:24;;;;;;;;;;;20.80;99.90;;;;;;5073497;28;20258;-73
2021/09/27 10:29:51;;;;;;;;;;;20.90;99.90;;;;;;5075816;28;20369;-73
2021/09/27 10:32:26;;;;;;;;;;;20.90;99.90;;;;;;5058384;28;19920;-76
2021/09/27 10:34:53;;;;;;;;;;;21.00;99.90;;;;;;5048324;28;19916;-73
2021/09/27 10:37:20;;;;;;;;;;;21.00;99.90;;;;;;5067740;28;20381;-74
2021/09/27 10:39:48;;;;;;;;;;;21.00;99.90;;;;;;5074693;28;19916;-74
2021/09/27 10:42:17;;;;;;;;;;;20.90;99.90;;;;;;5075756;28;20376;-75
2021/09/27 10:44:50;;;;;;;;;;;21.00;99.90;;;;;;5061256;28;19913;-75
2021/09/27 10:47:20;;;;;;;;;;;21.00;99.90;;;;;;5071897;28;20003;-74
2021/09/27 10:49:49;;;;;;;;;;;21.00;99.90;;;;;;5057670;28;19954;-74
2021/09/27 10:52:22;;;;;;;;;;;21.00;99.90;;;;;;5054922;28;20356;-73
2021/09/27 10:54:56;;;;;;;;;;;20.90;99.90;;;;;;5049449;28;19962;-74
2021/09/27 10:57:24;;;;;;;;;;;21.00;99.90;;;;;;5073990;28;19974;-74
2021/09/27 11:00:04;;;;;;;;;;;21.00;99.90;;;;;;5055672;28;19923;-74
2021/09/27 11:02:32;;;;;;;;;;;21.00;99.90;;;;;;5063941;28;19986;-74
2021/09/27 11:05:11;;;;;;;;;;;21.00;99.90;;;;;;5052645;28;19912;-73
2021/09/27 11:07:48;;;;;;;;;;;20.90;99.90;;;;;;5066671;28;19918;-73
2021/09/27 11:10:18;;;;;;;;;;;20.90;99.90;;;;;;5046895;28;20359;-74
2021/09/27 11:12:48;;;;;;;;;;;20.80;99.90;;;;;;5055518;28;20008;-73
2021/09/27 11:15:19;;;;;;;;;;;20.80;99.90;;;;;;5063910;28;19912;-72
2021/09/27 11:17:46;;;;;;;;;;;20.70;99.90;;;;;;5074570;28;19944;-73
2021/09/27 11:20:12;;;;;;;;;;;20.80;99.90;;;;;;5057444;28;20329;-73
2021/09/27 11:22:44;;;;;;;;;;;20.90;99.90;;;;;;5045859;28;19996;-74
2021/09/27 11:25:21;;;;;;;;;;;21.00;99.90;;;;;;5070257;28;19913;-74
2021/09/27 11:28:11;;;;;;;;;;;21.00;99.90;;;;;;5074699;28;19940;-74
2021/09/27 11:30:39;;;;;;;;;;;21.10;99.90;;;;;;5065084;28;19921;-73
2021/09/27 11:33:16;;;;;;;;;;;21.30;99.90;;;;;;5061507;28;20003;-74
2021/09/27 11:35:43;;;;;;;;;;;21.30;99.90;;;;;;5086273;28;19912;-75
2021/09/27 11:38:08;;;;;;;;;;;21.30;99.90;;;;;;5052279;28;19966;-75
2021/09/27 11:40:36;;;;;;;;;;;21.40;99.90;;;;;;5071951;28;20443;-74
2021/09/27 11:43:11;;;;;;;;;;;21.40;99.90;;;;;;5071411;28;19912;-74
2021/09/27 11:45:49;;;;;;;;;;;21.50;99.90;;;;;;5065382;28;19920;-74
2021/09/27 11:48:17;;;;;;;;;;;21.60;99.90;;;;;;5059812;28;19924;-74
2021/09/27 11:50:51;;;;;;;;;;;21.70;99.90;;;;;;5056772;28;19912;-74
2021/09/27 11:53:20;;;;;;;;;;;21.80;99.90;;;;;;5048089;28;19919;-73
2021/09/27 11:56:01;;;;;;;;;;;21.80;99.90;;;;;;5074082;28;19917;-74
2021/09/27 11:58:35;;;;;;;;;;;21.90;99.90;;;;;;5069308;28;19979;-75
2021/09/27 12:01:04;;;;;;;;;;;22.20;99.90;;;;;;5072228;28;19912;-74
2021/09/27 12:03:40;;;;;;;;;;;22.50;99.90;;;;;;5057764;28;19920;-73
2021/09/27 12:06:11;;;;;;;;;;;22.70;99.90;;;;;;5065445;28;19919;-74
2021/09/27 12:08:41;;;;;;;;;;;22.90;99.90;;;;;;5071827;28;19913;-73
2021/09/27 12:11:09;;;;;;;;;;;23.00;99.90;;;;;;5069138;28;20008;-74
2021/09/27 12:13:37;;;;;;;;;;;22.90;99.90;;;;;;5036295;28;19917;-75
2021/09/27 12:16:04;;;;;;;;;;;22.70;99.90;;;;;;5064730;28;19913;-74
2021/09/27 12:18:52;;;;;;;;;;;22.60;99.90;;;;;;5071864;28;19927;-74
2021/09/27 12:21:32;;;;;;;;;;;22.40;99.90;;;;;;5036398;28;19920;-73
2021/09/27 12:24:19;;;;;;;;;;;22.10;99.90;;;;;;5073646;28;20402;-73
2021/09/27 12:26:50;;;;;;;;;;;22.00;99.90;;;;;;5055240;28;20014;-76
2021/09/27 12:29:20;;;;;;;;;;;21.90;99.90;;;;;;5068723;28;19942;-74
2021/09/27 12:31:53;;;;;;;;;;;21.80;99.90;;;;;;5068065;28;19913;-73
2021/09/27 12:34:21;;;;;;;;;;;21.70;99.90;;;;;;5054472;28;19920;-74
2021/09/27 12:36:47;;;;;;;;;;;21.70;99.90;;;;;;5070223;28;19920;-74
2021/09/27 12:39:12;;;;;;;;;;;21.60;99.90;;;;;;5055806;28;19921;-74
2021/09/27 12:41:39;;;;;;;;;;;21.40;99.90;;;;;;5065139;28;19913;-74
2021/09/27 12:44:16;;;;;;;;;;;21.30;99.90;;;;;;5070200;28;20430;-74
2021/09/27 12:46:43;;;;;;;;;;;21.20;99.90;;;;;;5053648;28;19927;-76
2021/09/27 12:49:10;;;;;;;;;;;21.00;99.90;;;;;;5073649;28;20388;-74
2021/09/27 12:51:38;;;;;;;;;;;20.90;99.90;;;;;;5039722;28;19967;-74
2021/09/27 12:54:06;;;;;;;;;;;20.70;99.90;;;;;;5069154;28;19917;-73
2021/09/27 12:56:32;;;;;;;;;;;20.60;99.90;;;;;;5053656;28;19913;-74
2021/09/27 12:59:01;;;;;;;;;;;20.50;99.90;;;;;;5053761;28;20018;-74
2021/09/27 13:01:27;;;;;;;;;;;20.20;99.90;;;;;;5054590;28;20399;-74
2021/09/27 13:03:56;;;;;;;;;;;20.10;99.90;;;;;;5051667;28;19921;-74
2021/09/27 13:06:33;;;;;;;;;;;20.10;99.90;;;;;;5070500;28;19936;-73
2021/09/27 13:09:11;;;;;;;;;;;20.00;99.90;;;;;;5062765;28;20003;-74
2021/09/27 13:11:38;;;;;;;;;;;20.00;99.90;;;;;;5072160;28;19912;-73
2021/09/27 13:14:04;;;;;;;;;;;19.90;99.90;;;;;;5046790;28;19978;-73
2021/09/27 13:16:33;;;;;;;;;;;19.90;99.90;;;;;;5065749;28;19917;-72
2021/09/27 13:18:58;;;;;;;;;;;19.90;99.90;;;;;;5054167;28;20282;-72
2021/09/27 13:21:26;;;;;;;;;;;19.80;99.90;;;;;;5051524;28;19924;-72
2021/09/27 13:23:51;;;;;;;;;;;19.60;99.90;;;;;;5070189;28;20382;-72
2021/09/27 13:26:19;;;;;;;;;;;19.60;99.90;;;;;;5071637;28;19913;-72
2021/09/27 13:28:47;;;;;;;;;;;19.50;99.90;;;;;;5073055;28;19912;-74
2021/09/27 13:31:17;;;;;;;;;;;19.40;99.90;;;;;;5067321;28;21484;-74
2021/09/27 13:33:45;;;;;;;;;;;19.20;99.90;;;;;;5072521;28;19912;-73
2021/09/27 13:36:23;;;;;;;;;;;19.00;99.90;;;;;;5070271;28;20003;-72
2021/09/27 13:38:55;;;;;;;;;;;18.90;99.90;;;;;;5069902;28;20057;-72
2021/09/27 13:41:22;;;;;;;;;;;18.60;99.90;;;;;;5061496;28;19920;-72
2021/09/27 13:43:56;;;;;;;;;;;18.50;99.90;;;;;;5065274;28;19917;-72
2021/09/27 13:46:30;;;;;;;;;;;18.40;99.90;;;;;;5055117;28;19943;-72
2021/09/27 13:48:56;;;;;;;;;;;18.30;99.90;;;;;;5061946;28;19920;-72
2021/09/27 13:51:23;;;;;;;;;;;18.30;99.90;;;;;;5073386;28;20364;-72
2021/09/27 13:53:51;;;;;;;;;;;18.30;99.90;;;;;;5057331;28;19913;-72
2021/09/27 13:56:20;;;;;;;;;;;18.20;99.90;;;;;;5076135;28;19912;-72
2021/09/27 13:58:46;;;;;;;;;;;18.20;99.90;;;;;;5072194;28;19920;-72
2021/09/27 14:01:13;;;;;;;;;;;18.20;99.90;;;;;;5068691;28;19913;-71
2021/09/27 14:03:39;;;;;;;;;;;18.10;99.90;;;;;;5060140;28;19913;-71
2021/09/27 14:06:04;;;;;;;;;;;18.00;99.90;;;;;;5076105;28;19912;-70
2021/09/27 14:08:30;;;;;;;;;;;18.00;99.90;;;;;;5076053;28;20369;-71
2021/09/27 14:10:56;;;;;;;;;;;17.90;99.90;;;;;;5075966;28;20006;-71
2021/09/27 14:13:26;;;;;;;;;;;17.80;99.90;;;;;;5063414;28;20284;-71
2021/09/27 14:15:51;;;;;;;;;;;17.80;99.90;;;;;;5076631;28;20283;-71
2021/09/27 14:18:17;;;;;;;;;;;17.70;99.90;;;;;;5057823;28;19921;-71
2021/09/27 14:20:43;;;;;;;;;;;17.70;99.90;;;;;;5056642;28;20007;-70
2021/09/27 14:23:09;;;;;;;;;;;17.60;99.90;;;;;;5073767;28;19920;-70
2021/09/27 14:25:35;;;;;;;;;;;17.60;99.90;;;;;;5074876;28;19920;-70
2021/09/27 14:28:00;;;;;;;;;;;17.50;99.90;;;;;;5076020;28;19958;-71
2021/09/27 14:30:26;;;;;;;;;;;17.40;99.90;;;;;;5066543;28;19920;-71
2021/09/27 14:32:52;;;;;;;;;;;17.30;99.90;;;;;;5060804;28;19936;-71
2021/09/27 14:35:18;;;;;;;;;;;17.20;99.90;;;;;;5058068;28;19908;-69
2021/09/27 14:37:43;;;;;;;;;;;17.10;99.90;;;;;;5074634;28;19919;-72
2021/09/27 14:40:10;;;;;;;;;;;17.00;99.90;;;;;;5056187;28;19912;-71